sensor_id;sensor_type;location;lat;lon;timestamp;P1;durP1;ratioP1;P2;durP2;ratioP2
43857;SDS011;29507;51.284;5.758;2022-08-03T00:01:40;7.13;;;2.88;;
43857;SDS011;29507;51.284;5.758;2022-08-03T00:04:06;6.93;;;2.45;;
43857;SDS011;29507;51.284;5.758;2022-08-03T00:06:33;6.32;;;2.67;;
43857;SDS011;29507;51.284;5.758;2022-08-03T00:08:59;5.68;;;2.58;;
43857;SDS011;29507;51.284;5.758;2022-08-03T00:11:25;6.70;;;2.50;;
43857;SDS011;29507;51.284;5.758;2022-08-03T00:13:51;7.53;;;3.00;;
43857;SDS011;29507;51.284;5.758;2022-08-03T00:16:16;9.07;;;3.30;;
43857;SDS011;29507;51.284;5.758;2022-08-03T00:18:43;8.27;;;2.80;;
43857;SDS011;29507;51.284;5.758;2022-08-03T00:21:08;5.55;;;2.95;;
43857;SDS011;29507;51.284;5.758;2022-08-03T00:23:35;8.13;;;3.00;;
43857;SDS011;29507;51.284;5.758;2022-08-03T00:26:01;4.35;;;2.40;;
43857;SDS011;29507;51.284;5.758;2022-08-03T00:28:27;8.45;;;2.97;;
43857;SDS011;29507;51.284;5.758;2022-08-03T00:30:53;5.80;;;2.53;;
43857;SDS011;29507;51.284;5.758;2022-08-03T00:33:20;10.48;;;2.70;;
43857;SDS011;29507;51.284;5.758;2022-08-03T00:35:46;7.40;;;2.90;;
43857;SDS011;29507;51.284;5.758;2022-08-03T00:38:11;8.50;;;2.88;;
43857;SDS011;29507;51.284;5.758;2022-08-03T00:40:37;5.20;;;2.33;;
43857;SDS011;29507;51.284;5.758;2022-08-03T00:43:03;6.03;;;2.78;;
43857;SDS011;29507;51.284;5.758;2022-08-03T00:45:34;7.60;;;2.65;;
43857;SDS011;29507;51.284;5.758;2022-08-03T00:48:02;5.82;;;2.60;;
43857;SDS011;29507;51.284;5.758;2022-08-03T00:50:30;6.68;;;3.53;;
43857;SDS011;29507;51.284;5.758;2022-08-03T00:52:59;9.18;;;3.85;;
43857;SDS011;29507;51.284;5.758;2022-08-03T00:55:25;8.65;;;2.90;;
43857;SDS011;29507;51.284;5.758;2022-08-03T00:57:54;5.97;;;2.60;;
43857;SDS011;29507;51.284;5.758;2022-08-03T01:00:21;7.55;;;2.85;;
43857;SDS011;29507;51.284;5.758;2022-08-03T01:02:49;7.28;;;2.58;;
43857;SDS011;29507;51.284;5.758;2022-08-03T01:05:15;4.82;;;2.60;;
43857;SDS011;29507;51.284;5.758;2022-08-03T01:11:00;5.25;;;2.50;;
43857;SDS011;29507;51.284;5.758;2022-08-03T01:16:32;6.70;;;3.40;;
43857;SDS011;29507;51.284;5.758;2022-08-03T01:22:03;5.88;;;2.97;;
43857;SDS011;29507;51.284;5.758;2022-08-03T01:30:37;10.13;;;3.83;;
43857;SDS011;29507;51.284;5.758;2022-08-03T01:33:09;6.30;;;3.60;;
43857;SDS011;29507;51.284;5.758;2022-08-03T01:35:46;6.68;;;3.28;;
43857;SDS011;29507;51.284;5.758;2022-08-03T01:38:17;7.97;;;3.42;;
43857;SDS011;29507;51.284;5.758;2022-08-03T01:40:49;6.72;;;3.45;;
43857;SDS011;29507;51.284;5.758;2022-08-03T01:43:18;9.85;;;3.83;;
43857;SDS011;29507;51.284;5.758;2022-08-03T01:45:45;5.68;;;3.10;;
43857;SDS011;29507;51.284;5.758;2022-08-03T01:48:12;9.23;;;3.60;;
43857;SDS011;29507;51.284;5.758;2022-08-03T01:50:41;11.75;;;4.10;;
43857;SDS011;29507;51.284;5.758;2022-08-03T01:53:08;11.35;;;4.28;;
43857;SDS011;29507;51.284;5.758;2022-08-03T01:55:37;8.63;;;4.67;;
43857;SDS011;29507;51.284;5.758;2022-08-03T01:58:04;15.38;;;5.10;;
43857;SDS011;29507;51.284;5.758;2022-08-03T02:00:32;11.05;;;6.10;;
43857;SDS011;29507;51.284;5.758;2022-08-03T02:03:01;10.10;;;5.30;;
43857;SDS011;29507;51.284;5.758;2022-08-03T02:05:29;11.40;;;5.65;;
43857;SDS011;29507;51.284;5.758;2022-08-03T02:07:56;20.08;;;9.27;;
43857;SDS011;29507;51.284;5.758;2022-08-03T02:10:23;15.90;;;9.10;;
43857;SDS011;29507;51.284;5.758;2022-08-03T02:12:51;17.52;;;8.73;;
43857;SDS011;29507;51.284;5.758;2022-08-03T02:15:18;12.90;;;7.55;;
43857;SDS011;29507;51.284;5.758;2022-08-03T02:17:46;19.63;;;8.98;;
43857;SDS011;29507;51.284;5.758;2022-08-03T02:20:12;13.98;;;7.22;;
43857;SDS011;29507;51.284;5.758;2022-08-03T02:22:39;12.98;;;6.90;;
43857;SDS011;29507;51.284;5.758;2022-08-03T02:25:06;14.18;;;6.13;;
43857;SDS011;29507;51.284;5.758;2022-08-03T02:27:33;14.18;;;5.93;;
43857;SDS011;29507;51.284;5.758;2022-08-03T02:30:06;12.25;;;5.40;;
43857;SDS011;29507;51.284;5.758;2022-08-03T02:32:35;11.68;;;5.32;;
43857;SDS011;29507;51.284;5.758;2022-08-03T02:35:05;11.15;;;5.28;;
43857;SDS011;29507;51.284;5.758;2022-08-03T02:37:36;9.50;;;4.97;;
43857;SDS011;29507;51.284;5.758;2022-08-03T02:40:06;11.73;;;4.70;;
43857;SDS011;29507;51.284;5.758;2022-08-03T02:42:34;8.43;;;3.92;;
43857;SDS011;29507;51.284;5.758;2022-08-03T02:45:01;8.98;;;4.68;;
43857;SDS011;29507;51.284;5.758;2022-08-03T02:47:30;15.35;;;4.15;;
43857;SDS011;29507;51.284;5.758;2022-08-03T02:49:59;8.77;;;4.43;;
43857;SDS011;29507;51.284;5.758;2022-08-03T02:52:27;13.10;;;4.70;;
43857;SDS011;29507;51.284;5.758;2022-08-03T02:54:57;9.07;;;4.75;;
43857;SDS011;29507;51.284;5.758;2022-08-03T02:57:25;12.00;;;4.88;;
43857;SDS011;29507;51.284;5.758;2022-08-03T02:59:53;11.90;;;4.32;;
43857;SDS011;29507;51.284;5.758;2022-08-03T03:02:19;9.50;;;4.78;;
43857;SDS011;29507;51.284;5.758;2022-08-03T03:04:46;9.77;;;5.55;;
43857;SDS011;29507;51.284;5.758;2022-08-03T03:07:15;8.07;;;5.05;;
43857;SDS011;29507;51.284;5.758;2022-08-03T03:09:42;9.35;;;4.55;;
43857;SDS011;29507;51.284;5.758;2022-08-03T03:12:09;10.85;;;4.78;;
43857;SDS011;29507;51.284;5.758;2022-08-03T03:14:36;11.65;;;5.25;;
43857;SDS011;29507;51.284;5.758;2022-08-03T03:17:02;11.63;;;5.35;;
43857;SDS011;29507;51.284;5.758;2022-08-03T03:19:30;12.80;;;4.78;;
43857;SDS011;29507;51.284;5.758;2022-08-03T03:21:57;11.05;;;4.65;;
43857;SDS011;29507;51.284;5.758;2022-08-03T03:24:26;9.85;;;4.50;;
43857;SDS011;29507;51.284;5.758;2022-08-03T03:26:53;13.50;;;4.85;;
43857;SDS011;29507;51.284;5.758;2022-08-03T03:29:19;9.40;;;4.40;;
43857;SDS011;29507;51.284;5.758;2022-08-03T03:31:45;10.73;;;4.30;;
43857;SDS011;29507;51.284;5.758;2022-08-03T03:34:11;10.77;;;4.25;;
43857;SDS011;29507;51.284;5.758;2022-08-03T03:36:37;8.40;;;4.65;;
43857;SDS011;29507;51.284;5.758;2022-08-03T03:39:03;11.80;;;4.88;;
43857;SDS011;29507;51.284;5.758;2022-08-03T03:41:29;8.65;;;4.72;;
43857;SDS011;29507;51.284;5.758;2022-08-03T03:43:54;9.93;;;5.07;;
43857;SDS011;29507;51.284;5.758;2022-08-03T03:46:20;10.75;;;4.68;;
43857;SDS011;29507;51.284;5.758;2022-08-03T03:48:46;10.27;;;4.88;;
43857;SDS011;29507;51.284;5.758;2022-08-03T03:51:12;10.15;;;5.13;;
43857;SDS011;29507;51.284;5.758;2022-08-03T03:53:39;12.57;;;5.63;;
43857;SDS011;29507;51.284;5.758;2022-08-03T03:56:04;9.30;;;5.07;;
43857;SDS011;29507;51.284;5.758;2022-08-03T03:58:31;9.57;;;4.88;;
43857;SDS011;29507;51.284;5.758;2022-08-03T04:00:56;8.18;;;4.78;;
43857;SDS011;29507;51.284;5.758;2022-08-03T04:03:22;8.25;;;4.35;;
43857;SDS011;29507;51.284;5.758;2022-08-03T04:05:48;10.07;;;4.65;;
43857;SDS011;29507;51.284;5.758;2022-08-03T04:08:32;11.95;;;5.45;;
43857;SDS011;29507;51.284;5.758;2022-08-03T04:11:18;11.80;;;4.65;;
43857;SDS011;29507;51.284;5.758;2022-08-03T04:16:33;10.18;;;3.88;;
43857;SDS011;29507;51.284;5.758;2022-08-03T04:19:02;9.35;;;4.57;;
43857;SDS011;29507;51.284;5.758;2022-08-03T04:21:32;7.75;;;4.75;;
43857;SDS011;29507;51.284;5.758;2022-08-03T04:24:03;8.48;;;4.00;;
43857;SDS011;29507;51.284;5.758;2022-08-03T04:26:33;11.32;;;4.68;;
43857;SDS011;29507;51.284;5.758;2022-08-03T04:29:03;8.68;;;4.53;;
43857;SDS011;29507;51.284;5.758;2022-08-03T04:31:30;13.20;;;4.40;;
43857;SDS011;29507;51.284;5.758;2022-08-03T04:33:56;14.75;;;4.22;;
43857;SDS011;29507;51.284;5.758;2022-08-03T04:36:24;9.73;;;4.55;;
43857;SDS011;29507;51.284;5.758;2022-08-03T04:39:36;18.53;;;5.30;;
43857;SDS011;29507;51.284;5.758;2022-08-03T04:41:38;12.77;;;5.03;;
43857;SDS011;29507;51.284;5.758;2022-08-03T04:44:04;8.05;;;4.70;;
43857;SDS011;29507;51.284;5.758;2022-08-03T04:46:33;13.80;;;4.20;;
43857;SDS011;29507;51.284;5.758;2022-08-03T04:49:02;10.73;;;4.60;;
43857;SDS011;29507;51.284;5.758;2022-08-03T04:51:29;8.52;;;4.25;;
43857;SDS011;29507;51.284;5.758;2022-08-03T04:53:55;9.98;;;4.38;;
43857;SDS011;29507;51.284;5.758;2022-08-03T04:56:21;9.82;;;4.65;;
43857;SDS011;29507;51.284;5.758;2022-08-03T04:58:47;11.25;;;4.60;;
43857;SDS011;29507;51.284;5.758;2022-08-03T05:01:13;12.80;;;4.60;;
43857;SDS011;29507;51.284;5.758;2022-08-03T05:03:39;7.88;;;4.07;;
43857;SDS011;29507;51.284;5.758;2022-08-03T05:06:05;11.43;;;4.40;;
43857;SDS011;29507;51.284;5.758;2022-08-03T05:08:31;7.97;;;4.45;;
43857;SDS011;29507;51.284;5.758;2022-08-03T05:10:56;12.80;;;4.57;;
43857;SDS011;29507;51.284;5.758;2022-08-03T05:13:22;8.38;;;4.53;;
43857;SDS011;29507;51.284;5.758;2022-08-03T05:15:48;7.53;;;3.95;;
43857;SDS011;29507;51.284;5.758;2022-08-03T05:18:13;8.00;;;4.15;;
43857;SDS011;29507;51.284;5.758;2022-08-03T05:20:39;12.05;;;4.07;;
43857;SDS011;29507;51.284;5.758;2022-08-03T05:23:04;11.02;;;4.85;;
43857;SDS011;29507;51.284;5.758;2022-08-03T05:25:30;11.93;;;4.30;;
43857;SDS011;29507;51.284;5.758;2022-08-03T05:27:55;8.35;;;4.18;;
43857;SDS011;29507;51.284;5.758;2022-08-03T05:30:21;9.30;;;4.40;;
43857;SDS011;29507;51.284;5.758;2022-08-03T05:32:47;8.10;;;4.63;;
43857;SDS011;29507;51.284;5.758;2022-08-03T05:35:12;8.70;;;4.45;;
43857;SDS011;29507;51.284;5.758;2022-08-03T05:37:38;10.63;;;4.38;;
43857;SDS011;29507;51.284;5.758;2022-08-03T05:40:04;11.18;;;5.10;;
43857;SDS011;29507;51.284;5.758;2022-08-03T05:42:30;8.65;;;4.25;;
43857;SDS011;29507;51.284;5.758;2022-08-03T05:44:55;12.50;;;4.82;;
43857;SDS011;29507;51.284;5.758;2022-08-03T05:47:21;16.77;;;4.70;;
43857;SDS011;29507;51.284;5.758;2022-08-03T05:49:46;11.70;;;4.75;;
43857;SDS011;29507;51.284;5.758;2022-08-03T05:52:12;9.50;;;4.38;;
43857;SDS011;29507;51.284;5.758;2022-08-03T05:54:38;9.10;;;3.83;;
43857;SDS011;29507;51.284;5.758;2022-08-03T05:57:03;7.70;;;3.80;;
43857;SDS011;29507;51.284;5.758;2022-08-03T05:59:29;8.25;;;4.05;;
43857;SDS011;29507;51.284;5.758;2022-08-03T06:01:54;8.77;;;3.40;;
43857;SDS011;29507;51.284;5.758;2022-08-03T06:04:20;6.32;;;3.83;;
43857;SDS011;29507;51.284;5.758;2022-08-03T06:06:46;7.40;;;3.03;;
43857;SDS011;29507;51.284;5.758;2022-08-03T06:09:12;8.80;;;3.42;;
43857;SDS011;29507;51.284;5.758;2022-08-03T06:11:39;6.30;;;2.42;;
43857;SDS011;29507;51.284;5.758;2022-08-03T06:14:06;5.70;;;1.88;;
43857;SDS011;29507;51.284;5.758;2022-08-03T06:16:31;9.25;;;2.15;;
43857;SDS011;29507;51.284;5.758;2022-08-03T06:18:57;5.18;;;1.67;;
43857;SDS011;29507;51.284;5.758;2022-08-03T06:21:23;8.65;;;1.90;;
43857;SDS011;29507;51.284;5.758;2022-08-03T06:23:48;4.90;;;1.67;;
43857;SDS011;29507;51.284;5.758;2022-08-03T06:26:14;5.65;;;1.50;;
43857;SDS011;29507;51.284;5.758;2022-08-03T06:28:40;9.15;;;1.90;;
43857;SDS011;29507;51.284;5.758;2022-08-03T06:31:08;6.25;;;2.08;;
43857;SDS011;29507;51.284;5.758;2022-08-03T06:33:33;4.85;;;1.70;;
43857;SDS011;29507;51.284;5.758;2022-08-03T06:35:59;4.32;;;1.60;;
43857;SDS011;29507;51.284;5.758;2022-08-03T06:38:25;5.22;;;1.45;;
43857;SDS011;29507;51.284;5.758;2022-08-03T06:40:50;6.40;;;1.60;;
43857;SDS011;29507;51.284;5.758;2022-08-03T06:43:16;5.10;;;1.85;;
43857;SDS011;29507;51.284;5.758;2022-08-03T06:45:41;5.75;;;1.80;;
43857;SDS011;29507;51.284;5.758;2022-08-03T06:48:08;9.07;;;1.83;;
43857;SDS011;29507;51.284;5.758;2022-08-03T06:50:35;5.40;;;1.30;;
43857;SDS011;29507;51.284;5.758;2022-08-03T06:53:02;5.85;;;1.80;;
43857;SDS011;29507;51.284;5.758;2022-08-03T06:55:29;5.63;;;1.25;;
43857;SDS011;29507;51.284;5.758;2022-08-03T06:57:56;3.95;;;1.02;;
43857;SDS011;29507;51.284;5.758;2022-08-03T07:00:22;7.25;;;1.95;;
43857;SDS011;29507;51.284;5.758;2022-08-03T07:02:48;2.90;;;0.80;;
43857;SDS011;29507;51.284;5.758;2022-08-03T07:05:14;7.72;;;1.60;;
43857;SDS011;29507;51.284;5.758;2022-08-03T07:07:40;6.03;;;1.10;;
43857;SDS011;29507;51.284;5.758;2022-08-03T07:10:07;5.53;;;1.20;;
43857;SDS011;29507;51.284;5.758;2022-08-03T07:12:34;5.10;;;1.00;;
43857;SDS011;29507;51.284;5.758;2022-08-03T07:15:00;3.75;;;0.88;;
43857;SDS011;29507;51.284;5.758;2022-08-03T07:17:27;7.65;;;1.40;;
43857;SDS011;29507;51.284;5.758;2022-08-03T07:19:53;5.60;;;1.30;;
43857;SDS011;29507;51.284;5.758;2022-08-03T07:22:19;4.57;;;0.90;;
43857;SDS011;29507;51.284;5.758;2022-08-03T07:24:45;5.55;;;1.05;;
43857;SDS011;29507;51.284;5.758;2022-08-03T07:27:11;3.45;;;0.85;;
43857;SDS011;29507;51.284;5.758;2022-08-03T07:29:37;4.13;;;1.10;;
43857;SDS011;29507;51.284;5.758;2022-08-03T07:32:03;4.38;;;1.40;;
43857;SDS011;29507;51.284;5.758;2022-08-03T07:34:29;2.80;;;0.63;;
43857;SDS011;29507;51.284;5.758;2022-08-03T07:36:55;4.38;;;1.10;;
43857;SDS011;29507;51.284;5.758;2022-08-03T07:39:21;6.63;;;1.20;;
43857;SDS011;29507;51.284;5.758;2022-08-03T07:41:47;4.95;;;1.05;;
43857;SDS011;29507;51.284;5.758;2022-08-03T07:44:15;3.78;;;0.98;;
43857;SDS011;29507;51.284;5.758;2022-08-03T07:46:42;2.75;;;1.00;;
43857;SDS011;29507;51.284;5.758;2022-08-03T07:49:07;3.08;;;0.85;;
43857;SDS011;29507;51.284;5.758;2022-08-03T07:51:33;2.50;;;0.90;;
43857;SDS011;29507;51.284;5.758;2022-08-03T07:53:59;10.48;;;1.30;;
43857;SDS011;29507;51.284;5.758;2022-08-03T07:56:25;6.13;;;1.50;;
43857;SDS011;29507;51.284;5.758;2022-08-03T07:58:51;5.93;;;0.85;;
43857;SDS011;29507;51.284;5.758;2022-08-03T08:01:16;2.88;;;0.80;;
43857;SDS011;29507;51.284;5.758;2022-08-03T08:03:43;5.57;;;1.13;;
43857;SDS011;29507;51.284;5.758;2022-08-03T08:06:09;6.45;;;1.10;;
43857;SDS011;29507;51.284;5.758;2022-08-03T08:08:36;4.03;;;1.25;;
43857;SDS011;29507;51.284;5.758;2022-08-03T08:11:02;4.07;;;1.00;;
43857;SDS011;29507;51.284;5.758;2022-08-03T08:13:28;6.45;;;0.90;;
43857;SDS011;29507;51.284;5.758;2022-08-03T08:15:54;5.55;;;1.20;;
43857;SDS011;29507;51.284;5.758;2022-08-03T08:18:20;4.07;;;1.10;;
43857;SDS011;29507;51.284;5.758;2022-08-03T08:20:45;4.50;;;1.80;;
43857;SDS011;29507;51.284;5.758;2022-08-03T08:23:11;3.65;;;1.08;;
43857;SDS011;29507;51.284;5.758;2022-08-03T08:25:37;4.90;;;0.80;;
43857;SDS011;29507;51.284;5.758;2022-08-03T08:28:03;5.68;;;1.13;;
43857;SDS011;29507;51.284;5.758;2022-08-03T08:30:30;2.50;;;0.80;;
43857;SDS011;29507;51.284;5.758;2022-08-03T08:32:56;3.33;;;1.10;;
43857;SDS011;29507;51.284;5.758;2022-08-03T08:35:22;4.22;;;0.82;;
43857;SDS011;29507;51.284;5.758;2022-08-03T08:37:48;4.35;;;0.95;;
43857;SDS011;29507;51.284;5.758;2022-08-03T08:40:14;2.85;;;0.88;;
43857;SDS011;29507;51.284;5.758;2022-08-03T08:42:40;5.05;;;1.00;;
43857;SDS011;29507;51.284;5.758;2022-08-03T08:45:07;2.92;;;1.35;;
43857;SDS011;29507;51.284;5.758;2022-08-03T08:47:35;3.53;;;0.82;;
43857;SDS011;29507;51.284;5.758;2022-08-03T08:50:03;3.05;;;0.90;;
43857;SDS011;29507;51.284;5.758;2022-08-03T08:52:29;3.17;;;0.80;;
43857;SDS011;29507;51.284;5.758;2022-08-03T08:55:03;4.00;;;0.90;;
43857;SDS011;29507;51.284;5.758;2022-08-03T08:57:35;3.15;;;0.98;;
43857;SDS011;29507;51.284;5.758;2022-08-03T09:00:05;3.67;;;0.75;;
43857;SDS011;29507;51.284;5.758;2022-08-03T09:02:34;4.82;;;0.90;;
43857;SDS011;29507;51.284;5.758;2022-08-03T09:05:00;3.92;;;1.08;;
43857;SDS011;29507;51.284;5.758;2022-08-03T09:07:26;3.70;;;0.88;;
43857;SDS011;29507;51.284;5.758;2022-08-03T09:09:52;4.88;;;1.10;;
43857;SDS011;29507;51.284;5.758;2022-08-03T09:12:18;4.40;;;0.90;;
43857;SDS011;29507;51.284;5.758;2022-08-03T09:14:44;5.07;;;1.10;;
43857;SDS011;29507;51.284;5.758;2022-08-03T09:17:10;6.47;;;1.00;;
43857;SDS011;29507;51.284;5.758;2022-08-03T09:19:35;3.00;;;0.82;;
43857;SDS011;29507;51.284;5.758;2022-08-03T09:24:33;4.03;;;0.93;;
43857;SDS011;29507;51.284;5.758;2022-08-03T09:26:59;5.38;;;1.13;;
43857;SDS011;29507;51.284;5.758;2022-08-03T09:29:25;4.15;;;0.80;;
43857;SDS011;29507;51.284;5.758;2022-08-03T09:32:02;6.00;;;1.30;;
43857;SDS011;29507;51.284;5.758;2022-08-03T09:34:29;3.28;;;1.05;;
43857;SDS011;29507;51.284;5.758;2022-08-03T09:36:56;4.85;;;1.00;;
43857;SDS011;29507;51.284;5.758;2022-08-03T09:39:26;4.45;;;1.00;;
43857;SDS011;29507;51.284;5.758;2022-08-03T09:42:14;2.92;;;1.02;;
43857;SDS011;29507;51.284;5.758;2022-08-03T09:44:42;5.15;;;1.30;;
43857;SDS011;29507;51.284;5.758;2022-08-03T09:47:10;5.32;;;1.42;;
43857;SDS011;29507;51.284;5.758;2022-08-03T09:49:37;4.75;;;1.15;;
43857;SDS011;29507;51.284;5.758;2022-08-03T09:52:14;4.22;;;0.90;;
43857;SDS011;29507;51.284;5.758;2022-08-03T09:54:50;5.18;;;1.17;;
43857;SDS011;29507;51.284;5.758;2022-08-03T09:57:20;4.60;;;0.95;;
43857;SDS011;29507;51.284;5.758;2022-08-03T09:59:47;4.53;;;0.90;;
43857;SDS011;29507;51.284;5.758;2022-08-03T10:02:19;3.75;;;1.15;;
43857;SDS011;29507;51.284;5.758;2022-08-03T10:04:49;3.67;;;0.75;;
43857;SDS011;29507;51.284;5.758;2022-08-03T10:07:16;6.47;;;1.20;;
43857;SDS011;29507;51.284;5.758;2022-08-03T10:09:53;2.80;;;0.73;;
43857;SDS011;29507;51.284;5.758;2022-08-03T10:12:24;3.22;;;1.23;;
43857;SDS011;29507;51.284;5.758;2022-08-03T10:14:51;3.83;;;1.50;;
43857;SDS011;29507;51.284;5.758;2022-08-03T10:17:18;4.32;;;1.15;;
43857;SDS011;29507;51.284;5.758;2022-08-03T10:19:47;4.65;;;1.25;;
43857;SDS011;29507;51.284;5.758;2022-08-03T10:22:14;8.00;;;1.00;;
43857;SDS011;29507;51.284;5.758;2022-08-03T10:24:47;4.65;;;0.82;;
43857;SDS011;29507;51.284;5.758;2022-08-03T10:27:14;3.67;;;0.82;;
43857;SDS011;29507;51.284;5.758;2022-08-03T10:29:42;6.20;;;1.10;;
43857;SDS011;29507;51.284;5.758;2022-08-03T10:32:13;3.28;;;0.82;;
43857;SDS011;29507;51.284;5.758;2022-08-03T10:35:10;5.53;;;1.00;;
43857;SDS011;29507;51.284;5.758;2022-08-03T10:37:42;4.07;;;0.80;;
43857;SDS011;29507;51.284;5.758;2022-08-03T10:40:09;4.93;;;1.15;;
43857;SDS011;29507;51.284;5.758;2022-08-03T10:42:38;3.60;;;0.73;;
43857;SDS011;29507;51.284;5.758;2022-08-03T10:45:08;5.82;;;0.80;;
43857;SDS011;29507;51.284;5.758;2022-08-03T10:47:41;5.25;;;0.90;;
43857;SDS011;29507;51.284;5.758;2022-08-03T10:50:08;3.78;;;0.82;;
43857;SDS011;29507;51.284;5.758;2022-08-03T10:52:34;5.03;;;1.70;;
43857;SDS011;29507;51.284;5.758;2022-08-03T10:55:00;4.65;;;1.33;;
43857;SDS011;29507;51.284;5.758;2022-08-03T10:57:45;4.78;;;0.70;;
43857;SDS011;29507;51.284;5.758;2022-08-03T11:00:13;2.58;;;0.70;;
43857;SDS011;29507;51.284;5.758;2022-08-03T11:05:36;2.75;;;0.90;;
43857;SDS011;29507;51.284;5.758;2022-08-03T11:08:29;3.15;;;1.02;;
43857;SDS011;29507;51.284;5.758;2022-08-03T11:11:23;7.95;;;1.17;;
43857;SDS011;29507;51.284;5.758;2022-08-03T11:13:56;5.28;;;0.90;;
43857;SDS011;29507;51.284;5.758;2022-08-03T11:16:25;3.78;;;0.60;;
43857;SDS011;29507;51.284;5.758;2022-08-03T11:18:55;2.95;;;0.82;;
43857;SDS011;29507;51.284;5.758;2022-08-03T11:35:15;4.93;;;1.17;;
43857;SDS011;29507;51.284;5.758;2022-08-03T11:48:26;4.57;;;0.75;;
43857;SDS011;29507;51.284;5.758;2022-08-03T11:51:02;7.45;;;0.73;;
43857;SDS011;29507;51.284;5.758;2022-08-03T11:53:31;4.93;;;0.73;;
43857;SDS011;29507;51.284;5.758;2022-08-03T11:56:00;4.82;;;0.75;;
43857;SDS011;29507;51.284;5.758;2022-08-03T11:58:27;3.97;;;1.00;;
43857;SDS011;29507;51.284;5.758;2022-08-03T12:01:02;3.28;;;1.05;;
43857;SDS011;29507;51.284;5.758;2022-08-03T12:03:31;3.15;;;0.82;;
43857;SDS011;29507;51.284;5.758;2022-08-03T12:05:58;2.78;;;0.75;;
43857;SDS011;29507;51.284;5.758;2022-08-03T12:10:52;3.45;;;1.20;;
43857;SDS011;29507;51.284;5.758;2022-08-03T12:13:19;6.03;;;1.52;;
43857;SDS011;29507;51.284;5.758;2022-08-03T12:15:52;5.85;;;0.90;;
43857;SDS011;29507;51.284;5.758;2022-08-03T12:18:19;4.47;;;0.90;;
43857;SDS011;29507;51.284;5.758;2022-08-03T12:20:46;2.88;;;0.80;;
43857;SDS011;29507;51.284;5.758;2022-08-03T12:23:13;5.97;;;1.50;;
43857;SDS011;29507;51.284;5.758;2022-08-03T12:25:40;4.35;;;0.98;;
43857;SDS011;29507;51.284;5.758;2022-08-03T12:28:08;3.75;;;0.90;;
43857;SDS011;29507;51.284;5.758;2022-08-03T12:30:48;4.00;;;0.80;;
43857;SDS011;29507;51.284;5.758;2022-08-03T12:33:23;4.22;;;1.20;;
43857;SDS011;29507;51.284;5.758;2022-08-03T12:36:09;4.05;;;1.13;;
43857;SDS011;29507;51.284;5.758;2022-08-03T12:38:36;3.58;;;0.90;;
43857;SDS011;29507;51.284;5.758;2022-08-03T12:41:07;3.70;;;1.20;;
43857;SDS011;29507;51.284;5.758;2022-08-03T12:43:47;6.03;;;1.10;;
43857;SDS011;29507;51.284;5.758;2022-08-03T12:46:14;3.97;;;0.93;;
43857;SDS011;29507;51.284;5.758;2022-08-03T12:49:00;5.60;;;1.15;;
43857;SDS011;29507;51.284;5.758;2022-08-03T12:56:33;2.10;;;0.90;;
43857;SDS011;29507;51.284;5.758;2022-08-03T12:59:00;7.25;;;1.15;;
43857;SDS011;29507;51.284;5.758;2022-08-03T13:01:45;11.15;;;1.58;;
43857;SDS011;29507;51.284;5.758;2022-08-03T13:04:11;5.00;;;0.95;;
43857;SDS011;29507;51.284;5.758;2022-08-03T13:06:37;7.40;;;1.73;;
43857;SDS011;29507;51.284;5.758;2022-08-03T13:09:04;5.80;;;1.25;;
43857;SDS011;29507;51.284;5.758;2022-08-03T13:11:31;12.50;;;6.75;;
43857;SDS011;29507;51.284;5.758;2022-08-03T13:13:57;7.88;;;2.10;;
43857;SDS011;29507;51.284;5.758;2022-08-03T13:16:23;9.00;;;1.23;;
43857;SDS011;29507;51.284;5.758;2022-08-03T13:18:49;5.72;;;1.35;;
43857;SDS011;29507;51.284;5.758;2022-08-03T13:21:16;6.05;;;1.38;;
43857;SDS011;29507;51.284;5.758;2022-08-03T13:23:44;3.90;;;1.00;;
43857;SDS011;29507;51.284;5.758;2022-08-03T13:26:10;3.65;;;1.02;;
43857;SDS011;29507;51.284;5.758;2022-08-03T13:28:37;7.28;;;0.98;;
43857;SDS011;29507;51.284;5.758;2022-08-03T13:31:03;7.20;;;1.40;;
43857;SDS011;29507;51.284;5.758;2022-08-03T13:33:30;2.22;;;0.80;;
43857;SDS011;29507;51.284;5.758;2022-08-03T13:35:55;4.25;;;0.98;;
43857;SDS011;29507;51.284;5.758;2022-08-03T13:38:22;4.53;;;1.50;;
43857;SDS011;29507;51.284;5.758;2022-08-03T13:40:47;3.75;;;1.05;;
43857;SDS011;29507;51.284;5.758;2022-08-03T13:43:14;8.57;;;2.38;;
43857;SDS011;29507;51.284;5.758;2022-08-03T13:45:40;5.55;;;1.25;;
43857;SDS011;29507;51.284;5.758;2022-08-03T13:48:06;10.52;;;1.20;;
43857;SDS011;29507;51.284;5.758;2022-08-03T13:50:31;4.10;;;0.70;;
43857;SDS011;29507;51.284;5.758;2022-08-03T13:52:57;3.38;;;0.85;;
43857;SDS011;29507;51.284;5.758;2022-08-03T13:55:23;5.75;;;1.30;;
43857;SDS011;29507;51.284;5.758;2022-08-03T13:57:48;3.25;;;0.80;;
43857;SDS011;29507;51.284;5.758;2022-08-03T14:00:15;4.72;;;1.23;;
43857;SDS011;29507;51.284;5.758;2022-08-03T14:02:42;5.10;;;1.00;;
43857;SDS011;29507;51.284;5.758;2022-08-03T14:05:08;3.85;;;0.98;;
43857;SDS011;29507;51.284;5.758;2022-08-03T14:07:33;4.88;;;1.23;;
43857;SDS011;29507;51.284;5.758;2022-08-03T14:09:59;5.00;;;1.00;;
43857;SDS011;29507;51.284;5.758;2022-08-03T14:12:26;2.83;;;1.00;;
43857;SDS011;29507;51.284;5.758;2022-08-03T14:14:52;3.25;;;0.95;;
43857;SDS011;29507;51.284;5.758;2022-08-03T14:17:17;3.28;;;0.90;;
43857;SDS011;29507;51.284;5.758;2022-08-03T14:19:43;5.25;;;1.10;;
43857;SDS011;29507;51.284;5.758;2022-08-03T14:22:09;5.07;;;1.10;;
43857;SDS011;29507;51.284;5.758;2022-08-03T14:24:34;4.22;;;1.00;;
43857;SDS011;29507;51.284;5.758;2022-08-03T14:27:00;6.03;;;1.20;;
43857;SDS011;29507;51.284;5.758;2022-08-03T14:29:26;3.60;;;0.95;;
43857;SDS011;29507;51.284;5.758;2022-08-03T14:31:51;4.03;;;1.10;;
43857;SDS011;29507;51.284;5.758;2022-08-03T14:34:17;7.32;;;0.90;;
43857;SDS011;29507;51.284;5.758;2022-08-03T14:36:42;3.88;;;1.35;;
43857;SDS011;29507;51.284;5.758;2022-08-03T14:39:08;4.07;;;1.10;;
43857;SDS011;29507;51.284;5.758;2022-08-03T14:41:34;4.03;;;1.17;;
43857;SDS011;29507;51.284;5.758;2022-08-03T14:43:59;2.78;;;1.00;;
43857;SDS011;29507;51.284;5.758;2022-08-03T14:46:25;4.38;;;0.93;;
43857;SDS011;29507;51.284;5.758;2022-08-03T14:48:51;3.55;;;1.10;;
43857;SDS011;29507;51.284;5.758;2022-08-03T14:51:16;3.70;;;0.90;;
43857;SDS011;29507;51.284;5.758;2022-08-03T14:53:43;3.25;;;0.90;;
43857;SDS011;29507;51.284;5.758;2022-08-03T14:56:10;8.07;;;1.30;;
43857;SDS011;29507;51.284;5.758;2022-08-03T14:58:35;9.07;;;1.30;;
43857;SDS011;29507;51.284;5.758;2022-08-03T15:01:01;4.20;;;0.98;;
43857;SDS011;29507;51.284;5.758;2022-08-03T15:03:27;3.67;;;1.20;;
43857;SDS011;29507;51.284;5.758;2022-08-03T15:05:53;2.53;;;0.93;;
43857;SDS011;29507;51.284;5.758;2022-08-03T15:08:20;3.33;;;1.00;;
43857;SDS011;29507;51.284;5.758;2022-08-03T15:10:47;3.88;;;0.80;;
43857;SDS011;29507;51.284;5.758;2022-08-03T15:13:13;3.30;;;1.20;;
43857;SDS011;29507;51.284;5.758;2022-08-03T15:15:39;4.03;;;1.08;;
43857;SDS011;29507;51.284;5.758;2022-08-03T15:18:05;3.10;;;0.85;;
43857;SDS011;29507;51.284;5.758;2022-08-03T15:20:31;4.47;;;1.20;;
43857;SDS011;29507;51.284;5.758;2022-08-03T15:22:57;5.68;;;1.30;;
43857;SDS011;29507;51.284;5.758;2022-08-03T15:25:23;2.88;;;1.10;;
43857;SDS011;29507;51.284;5.758;2022-08-03T15:27:48;4.03;;;0.90;;
43857;SDS011;29507;51.284;5.758;2022-08-03T15:30:14;2.92;;;1.00;;
43857;SDS011;29507;51.284;5.758;2022-08-03T15:32:39;3.60;;;1.00;;
43857;SDS011;29507;51.284;5.758;2022-08-03T15:35:05;4.95;;;1.02;;
43857;SDS011;29507;51.284;5.758;2022-08-03T15:37:31;2.45;;;0.88;;
43857;SDS011;29507;51.284;5.758;2022-08-03T15:39:57;2.85;;;0.93;;
43857;SDS011;29507;51.284;5.758;2022-08-03T15:44:55;3.70;;;1.10;;
43857;SDS011;29507;51.284;5.758;2022-08-03T15:47:20;3.20;;;0.85;;